Time,TemperatureF,DewpointF,PressureIn,WindDirection,WindDirectionDegrees,WindSpeedMPH,WindSpeedGustMPH,Humidity,HourlyPrecipIn,Conditions,Clouds,dailyrainin,SoftwareType,DateUTC
2013-06-07 00:04:00,54.0,52.3,29.89,NNE,27,0.0,-999.0,94,0.00,,,0.00,WeatherSnoop3.0,2013-06-07 05:04:00,
2013-06-07 00:09:00,53.7,52.0,29.89,NNE,27,0.0,-999.0,94,0.00,,,0.00,WeatherSnoop3.0,2013-06-07 05:09:00,
2013-06-07 00:14:00,53.8,52.4,29.89,NNE,27,0.0,-999.0,95,0.00,,,0.00,WeatherSnoop3.0,2013-06-07 05:14:00,
2013-06-07 00:19:00,54.1,53.0,29.89,NNE,27,0.0,-999.0,96,0.00,,,0.00,WeatherSnoop3.0,2013-06-07 05:19:00,
2013-06-07 00:24:00,54.4,53.3,29.89,NNE,27,0.0,-999.0,96,0.00,,,0.00,WeatherSnoop3.0,2013-06-07 05:24:00,
2013-06-07 00:29:00,54.4,53.3,29.89,NNE,27,0.0,-999.0,96,0.00,,,0.00,WeatherSnoop3.0,2013-06-07 05:29:00,
2013-06-07 00:34:00,54.4,53.3,29.89,NNE,27,0.0,-999.0,96,0.00,,,0.00,WeatherSnoop3.0,2013-06-07 05:34:00,
2013-06-07 00:39:00,54.4,53.3,29.89,NNE,27,0.0,-999.0,96,0.00,,,0.00,WeatherSnoop3.0,2013-06-07 05:39:00,
2013-06-07 00:44:00,54.5,53.7,29.89,NNE,27,0.0,-999.0,97,0.00,,,0.00,WeatherSnoop3.0,2013-06-07 05:44:00,
2013-06-07 00:49:00,54.5,53.4,29.89,NNE,27,0.0,-999.0,96,0.00,,,0.00,WeatherSnoop3.0,2013-06-07 05:49:00,
2013-06-07 00:54:00,54.4,53.3,29.89,NNE,27,0.0,-999.0,96,0.00,,,0.00,WeatherSnoop3.0,2013-06-07 05:54:00,
2013-06-07 00:59:00,54.3,53.2,29.89,NNE,27,0.0,-999.0,96,0.00,,,0.00,WeatherSnoop3.0,2013-06-07 05:59:00,
2013-06-07 01:04:00,54.2,53.1,29.89,NNE,27,0.0,-999.0,96,0.00,,,0.00,WeatherSnoop3.0,2013-06-07 06:04:00,
2013-06-07 01:09:00,54.1,53.0,29.89,NNE,27,0.0,-999.0,96,0.00,,,0.00,WeatherSnoop3.0,2013-06-07 06:09:00,
2013-06-07 01:14:00,54.2,53.1,29.89,NNE,27,0.0,-999.0,96,0.00,,,0.00,WeatherSnoop3.0,2013-06-07 06:14:00,
2013-06-07 01:19:00,54.1,53.0,29.89,NNE,27,0.0,-999.0,96,0.00,,,0.00,WeatherSnoop3.0,2013-06-07 06:19:00,
2013-06-07 01:24:00,53.8,52.7,29.89,NNE,27,0.0,-999.0,96,0.00,,,0.00,WeatherSnoop3.0,2013-06-07 06:24:00,
2013-06-07 01:29:00,53.7,52.6,29.89,NNE,27,0.0,-999.0,96,0.00,,,0.00,WeatherSnoop3.0,2013-06-07 06:29:00,
2013-06-07 01:34:00,53.6,52.5,29.89,NNE,27,0.0,-999.0,96,0.00,,,0.00,WeatherSnoop3.0,2013-06-07 06:34:00,
2013-06-07 01:39:00,53.4,52.3,29.90,NNE,27,0.0,-999.0,96,0.00,,,0.00,WeatherSnoop3.0,2013-06-07 06:39:00,
2013-06-07 01:44:00,53.5,52.7,29.90,NNE,27,0.0,-999.0,97,0.00,,,0.00,WeatherSnoop3.0,2013-06-07 06:44:00,
2013-06-07 01:49:00,53.5,52.7,29.90,NNE,27,0.0,-999.0,97,0.00,,,0.00,WeatherSnoop3.0,2013-06-07 06:49:00,
2013-06-07 01:54:00,53.6,52.8,29.90,NNE,27,0.0,-999.0,97,0.00,,,0.00,WeatherSnoop3.0,2013-06-07 06:54:00,
2013-06-07 01:59:00,53.5,52.7,29.90,NNE,27,0.0,-999.0,97,0.00,,,0.00,WeatherSnoop3.0,2013-06-07 06:59:00,
2013-06-07 02:04:00,53.6,52.8,29.90,NNE,27,0.0,-999.0,97,0.00,,,0.00,WeatherSnoop3.0,2013-06-07 07:04:00,
2013-06-07 02:09:00,54.1,53.3,29.90,NNE,29,0.0,-999.0,97,0.00,,,0.00,WeatherSnoop3.0,2013-06-07 07:09:00,
2013-06-07 02:14:00,54.8,53.4,29.90,NNE,28,0.0,-999.0,95,0.00,,,0.00,WeatherSnoop3.0,2013-06-07 07:14:00,
2013-06-07 02:19:00,55.0,53.0,29.90,NNE,28,0.0,-999.0,93,0.00,,,0.00,WeatherSnoop3.0,2013-06-07 07:19:00,
2013-06-07 02:24:00,54.9,52.9,29.90,NNE,29,0.0,-999.0,93,0.00,,,0.00,WeatherSnoop3.0,2013-06-07 07:24:00,
2013-06-07 02:29:00,54.5,52.5,29.90,NNE,28,0.0,-999.0,93,0.00,,,0.00,WeatherSnoop3.0,2013-06-07 07:29:00,
2013-06-07 02:34:00,54.1,52.1,29.90,NNE,29,0.0,-999.0,93,0.00,,,0.00,WeatherSnoop3.0,2013-06-07 07:34:00,
2013-06-07 02:39:00,53.9,52.2,29.90,NNE,28,0.0,-999.0,94,0.00,,,0.00,WeatherSnoop3.0,2013-06-07 07:39:00,
2013-06-07 02:44:00,53.7,52.0,29.90,NNE,29,0.0,-999.0,94,0.00,,,0.00,WeatherSnoop3.0,2013-06-07 07:44:00,
2013-06-07 02:49:00,54.4,53.0,29.90,NNE,29,0.0,-999.0,95,0.00,,,0.00,WeatherSnoop3.0,2013-06-07 07:49:00,
2013-06-07 02:54:00,55.2,53.2,29.90,NNE,27,0.0,-999.0,93,0.00,,,0.00,WeatherSnoop3.0,2013-06-07 07:54:00,
2013-06-07 02:59:00,55.8,53.5,29.90,NNE,28,0.0,-999.0,92,0.00,,,0.00,WeatherSnoop3.0,2013-06-07 07:59:00,
2013-06-07 03:04:00,56.1,53.2,29.90,NNE,29,0.0,-999.0,90,0.00,,,0.00,WeatherSnoop3.0,2013-06-07 08:04:00,
2013-06-07 03:09:00,56.2,53.3,29.90,NNE,29,0.0,-999.0,90,0.00,,,0.00,WeatherSnoop3.0,2013-06-07 08:09:00,
2013-06-07 03:14:00,56.2,53.0,29.90,NNE,29,0.0,-999.0,89,0.00,,,0.00,WeatherSnoop3.0,2013-06-07 08:14:00,
2013-06-07 03:19:00,56.1,52.6,29.90,NNE,29,0.0,-999.0,88,0.00,,,0.00,WeatherSnoop3.0,2013-06-07 08:19:00,
2013-06-07 03:24:00,55.8,52.6,29.90,NNE,29,0.0,-999.0,89,0.00,,,0.00,WeatherSnoop3.0,2013-06-07 08:24:00,
2013-06-07 03:29:00,55.3,52.1,29.90,NNE,28,0.0,-999.0,89,0.00,,,0.00,WeatherSnoop3.0,2013-06-07 08:29:00,
2013-06-07 03:34:00,54.9,52.6,29.90,NNE,29,0.0,-999.0,92,0.00,,,0.00,WeatherSnoop3.0,2013-06-07 08:34:00,
2013-06-07 03:39:00,54.5,52.5,29.90,NNE,29,0.0,-999.0,93,0.00,,,0.00,WeatherSnoop3.0,2013-06-07 08:39:00,
2013-06-07 03:44:00,54.3,52.3,29.90,NNE,28,0.0,-999.0,93,0.00,,,0.00,WeatherSnoop3.0,2013-06-07 08:44:00,
2013-06-07 03:49:00,54.4,52.1,29.90,NNE,29,0.0,-999.0,92,0.00,,,0.00,WeatherSnoop3.0,2013-06-07 08:49:00,
2013-06-07 03:54:00,54.2,52.2,29.90,NNE,29,0.0,-999.0,93,0.00,,,0.00,WeatherSnoop3.0,2013-06-07 08:54:00,
2013-06-07 03:59:00,54.0,52.0,29.89,NNE,28,0.0,-999.0,93,0.00,,,0.00,WeatherSnoop3.0,2013-06-07 08:59:00,
2013-06-07 04:04:00,54.2,51.9,29.89,NNE,29,0.0,-999.0,92,0.00,,,0.00,WeatherSnoop3.0,2013-06-07 09:04:00,
2013-06-07 04:09:00,54.2,51.9,29.89,NNE,28,0.0,-999.0,92,0.00,,,0.00,WeatherSnoop3.0,2013-06-07 09:09:00,
2013-06-07 04:14:00,53.9,51.6,29.89,NNE,29,0.0,-999.0,92,0.00,,,0.00,WeatherSnoop3.0,2013-06-07 09:14:00,
2013-06-07 04:19:00,53.9,51.6,29.89,NNE,28,0.0,-999.0,92,0.00,,,0.00,WeatherSnoop3.0,2013-06-07 09:19:00,
2013-06-07 04:24:00,53.9,51.9,29.89,NNE,29,0.0,-999.0,93,0.00,,,0.00,WeatherSnoop3.0,2013-06-07 09:24:00,
2013-06-07 04:29:00,53.6,51.6,29.89,NNE,29,0.0,-999.0,93,0.00,,,0.00,WeatherSnoop3.0,2013-06-07 09:29:00,
2013-06-07 04:34:00,53.3,51.3,29.89,NNE,28,0.0,-999.0,93,0.00,,,0.00,WeatherSnoop3.0,2013-06-07 09:34:00,
2013-06-07 04:39:00,53.0,51.0,29.89,NNE,28,0.0,-999.0,93,0.00,,,0.00,WeatherSnoop3.0,2013-06-07 09:39:00,
2013-06-07 04:44:00,52.7,50.7,29.89,NNE,29,0.0,-999.0,93,0.00,,,0.00,WeatherSnoop3.0,2013-06-07 09:44:00,
2013-06-07 04:49:00,52.4,50.4,29.89,NNE,28,0.0,-999.0,93,0.00,,,0.00,WeatherSnoop3.0,2013-06-07 09:49:00,
2013-06-07 04:54:00,52.5,51.1,29.90,NNE,29,0.0,-999.0,95,0.00,,,0.00,WeatherSnoop3.0,2013-06-07 09:54:00,
2013-06-07 04:59:00,53.1,51.4,29.90,NNE,26,0.0,-999.0,94,0.00,,,0.00,WeatherSnoop3.0,2013-06-07 09:59:00,
2013-06-07 05:04:00,53.7,51.7,29.90,NNE,26,0.0,-999.0,93,0.00,,,0.00,WeatherSnoop3.0,2013-06-07 10:04:00,
2013-06-07 05:09:00,53.9,51.6,29.90,NNE,29,0.0,-999.0,92,0.00,,,0.00,WeatherSnoop3.0,2013-06-07 10:09:00,
2013-06-07 05:14:00,53.8,51.5,29.90,NNE,29,0.0,-999.0,92,0.00,,,0.00,WeatherSnoop3.0,2013-06-07 10:14:00,
2013-06-07 05:19:00,53.8,51.5,29.90,NNE,29,0.0,-999.0,92,0.00,,,0.00,WeatherSnoop3.0,2013-06-07 10:19:00,
2013-06-07 05:24:00,53.6,51.6,29.90,NNE,29,0.0,-999.0,93,0.00,,,0.00,WeatherSnoop3.0,2013-06-07 10:24:00,
2013-06-07 05:29:00,53.4,51.4,29.90,NNE,28,0.0,-999.0,93,0.00,,,0.00,WeatherSnoop3.0,2013-06-07 10:29:00,
2013-06-07 05:34:00,53.3,51.3,29.90,NNE,28,0.0,-999.0,93,0.00,,,0.00,WeatherSnoop3.0,2013-06-07 10:34:00,
2013-06-07 05:39:00,53.1,51.1,29.91,NNE,29,0.0,-999.0,93,0.00,,,0.00,WeatherSnoop3.0,2013-06-07 10:39:00,
2013-06-07 05:44:00,53.1,51.1,29.91,NNE,29,0.0,-999.0,93,0.00,,,0.00,WeatherSnoop3.0,2013-06-07 10:44:00,
2013-06-07 05:49:00,53.3,51.3,29.91,NNE,28,0.0,-999.0,93,0.00,,,0.00,WeatherSnoop3.0,2013-06-07 10:49:00,
2013-06-07 05:54:00,53.3,51.3,29.91,NNE,29,0.0,-999.0,93,0.00,,,0.00,WeatherSnoop3.0,2013-06-07 10:54:00,
2013-06-07 05:59:00,53.5,51.5,29.90,North,349,0.0,-999.0,93,0.00,,,0.00,WeatherSnoop3.0,2013-06-07 10:59:00,
2013-06-07 06:04:00,53.6,51.3,29.90,NE,41,0.0,-999.0,92,0.00,,,0.00,WeatherSnoop3.0,2013-06-07 11:04:00,
2013-06-07 06:09:00,53.4,51.1,29.90,NNE,13,1.0,-999.0,92,0.00,,,0.00,WeatherSnoop3.0,2013-06-07 11:09:00,
2013-06-07 06:14:00,53.4,51.1,29.90,NNE,28,0.0,-999.0,92,0.00,,,0.00,WeatherSnoop3.0,2013-06-07 11:14:00,
2013-06-07 06:19:00,53.5,51.2,29.90,NE,43,0.0,-999.0,92,0.00,,,0.00,WeatherSnoop3.0,2013-06-07 11:19:00,
2013-06-07 06:24:00,53.7,51.4,29.90,NE,50,0.0,-999.0,92,0.00,,,0.00,WeatherSnoop3.0,2013-06-07 11:24:00,
2013-06-07 06:29:00,53.9,51.6,29.90,ENE,68,1.0,-999.0,92,0.00,,,0.00,WeatherSnoop3.0,2013-06-07 11:29:00,
2013-06-07 06:34:00,54.2,51.9,29.90,ENE,58,0.0,-999.0,92,0.00,,,0.00,WeatherSnoop3.0,2013-06-07 11:34:00,
2013-06-07 06:39:00,54.4,52.1,29.90,NE,40,0.0,-999.0,92,0.00,,,0.00,WeatherSnoop3.0,2013-06-07 11:39:00,
2013-06-07 06:44:00,55.0,52.4,29.90,NE,39,0.0,-999.0,91,0.00,,,0.00,WeatherSnoop3.0,2013-06-07 11:44:00,
2013-06-07 06:49:00,55.5,52.6,29.90,NE,39,0.0,-999.0,90,0.00,,,0.00,WeatherSnoop3.0,2013-06-07 11:49:00,
2013-06-07 06:54:00,55.5,52.6,29.90,ENE,66,0.0,-999.0,90,0.00,,,0.00,WeatherSnoop3.0,2013-06-07 11:54:00,
2013-06-07 06:59:00,55.7,53.1,29.90,NE,56,0.0,-999.0,91,0.00,,,0.00,WeatherSnoop3.0,2013-06-07 11:59:00,
2013-06-07 07:04:00,56.3,53.4,29.90,NE,35,1.0,-999.0,90,0.00,,,0.00,WeatherSnoop3.0,2013-06-07 12:04:00,
2013-06-07 07:09:00,56.5,53.6,29.90,NNE,33,1.0,-999.0,90,0.00,,,0.00,WeatherSnoop3.0,2013-06-07 12:09:00,
2013-06-07 07:14:00,56.6,53.7,29.90,NE,53,1.0,-999.0,90,0.00,,,0.00,WeatherSnoop3.0,2013-06-07 12:14:00,
2013-06-07 07:19:00,56.9,54.0,29.90,NE,44,1.0,-999.0,90,0.00,,,0.00,WeatherSnoop3.0,2013-06-07 12:19:00,
2013-06-07 07:24:00,57.4,54.5,29.90,NNE,33,1.0,-999.0,90,0.00,,,0.00,WeatherSnoop3.0,2013-06-07 12:24:00,
2013-06-07 07:29:00,58.0,55.1,29.91,NNE,33,0.0,-999.0,90,0.00,,,0.00,WeatherSnoop3.0,2013-06-07 12:29:00,
2013-06-07 07:34:00,58.4,55.2,29.91,NNE,17,0.0,-999.0,89,0.00,,,0.00,WeatherSnoop3.0,2013-06-07 12:34:00,
2013-06-07 07:39:00,58.8,55.6,29.91,NNE,15,1.0,-999.0,89,0.00,,,0.00,WeatherSnoop3.0,2013-06-07 12:39:00,
2013-06-07 07:44:00,59.2,56.0,29.91,NNW,345,0.0,-999.0,89,0.00,,,0.00,WeatherSnoop3.0,2013-06-07 12:44:00,
2013-06-07 07:49:00,59.6,56.0,29.91,NE,35,0.0,-999.0,88,0.00,,,0.00,WeatherSnoop3.0,2013-06-07 12:49:00,
2013-06-07 07:54:00,59.9,56.3,29.91,NE,41,1.0,-999.0,88,0.00,,,0.00,WeatherSnoop3.0,2013-06-07 12:54:00,
2013-06-07 07:59:00,60.3,56.4,29.91,NNE,26,0.0,-999.0,87,0.00,,,0.00,WeatherSnoop3.0,2013-06-07 12:59:00,
2013-06-07 08:04:00,60.7,56.5,29.92,NNE,29,0.0,-999.0,86,0.00,,,0.00,WeatherSnoop3.0,2013-06-07 13:04:00,
2013-06-07 08:09:00,60.9,56.7,29.92,SSE,158,0.0,-999.0,86,0.00,,,0.00,WeatherSnoop3.0,2013-06-07 13:09:00,
2013-06-07 08:14:00,61.2,56.7,29.91,ENE,57,0.0,-999.0,85,0.00,,,0.00,WeatherSnoop3.0,2013-06-07 13:14:00,
2013-06-07 08:19:00,61.4,56.5,29.91,NE,55,0.0,-999.0,84,0.00,,,0.00,WeatherSnoop3.0,2013-06-07 13:19:00,
2013-06-07 08:24:00,61.8,56.9,29.92,NE,49,2.0,-999.0,84,0.00,,,0.00,WeatherSnoop3.0,2013-06-07 13:24:00,
2013-06-07 08:29:00,62.2,57.0,29.92,North,353,1.0,-999.0,83,0.00,,,0.00,WeatherSnoop3.0,2013-06-07 13:29:00,
2013-06-07 08:34:00,62.4,56.5,29.91,NNE,30,0.0,-999.0,81,0.00,,,0.00,WeatherSnoop3.0,2013-06-07 13:34:00,
2013-06-07 08:39:00,63.1,57.2,29.91,NNE,30,0.0,-999.0,81,0.00,,,0.00,WeatherSnoop3.0,2013-06-07 13:39:00,
2013-06-07 08:44:00,63.9,57.6,29.91,NNE,13,1.0,-999.0,80,0.00,,,0.00,WeatherSnoop3.0,2013-06-07 13:44:00,
2013-06-07 08:49:00,64.4,57.4,29.92,ENE,63,0.0,-999.0,78,0.00,,,0.00,WeatherSnoop3.0,2013-06-07 13:49:00,
2013-06-07 08:54:00,65.2,58.2,29.92,NE,53,0.0,-999.0,78,0.00,,,0.00,WeatherSnoop3.0,2013-06-07 13:54:00,
2013-06-07 08:59:00,65.9,58.1,29.92,NNE,27,0.0,-999.0,76,0.00,,,0.00,WeatherSnoop3.0,2013-06-07 13:59:00,
2013-06-07 09:04:00,66.2,57.7,29.92,NE,52,1.0,-999.0,74,0.00,,,0.00,WeatherSnoop3.0,2013-06-07 14:04:00,
2013-06-07 09:09:00,66.5,58.7,29.92,NE,39,1.0,-999.0,76,0.00,,,0.00,WeatherSnoop3.0,2013-06-07 14:09:00,
2013-06-07 09:14:00,67.3,58.7,29.92,ENE,77,0.0,-999.0,74,0.00,,,0.00,WeatherSnoop3.0,2013-06-07 14:14:00,
2013-06-07 09:19:00,68.0,58.6,29.92,NE,50,0.0,-999.0,72,0.00,,,0.00,WeatherSnoop3.0,2013-06-07 14:19:00,
2013-06-07 09:24:00,68.4,57.8,29.92,NE,50,0.0,-999.0,69,0.00,,,0.00,WeatherSnoop3.0,2013-06-07 14:24:00,
2013-06-07 09:29:00,68.7,57.3,29.93,North,11,2.0,-999.0,67,0.00,,,0.00,WeatherSnoop3.0,2013-06-07 14:29:00,
2013-06-07 09:34:00,69.3,57.4,29.92,North,360,1.0,-999.0,66,0.00,,,0.00,WeatherSnoop3.0,2013-06-07 14:34:00,
2013-06-07 09:39:00,69.7,57.4,29.92,NE,36,1.0,-999.0,65,0.00,,,0.00,WeatherSnoop3.0,2013-06-07 14:39:00,
2013-06-07 09:44:00,69.6,56.9,29.92,ENE,62,0.0,-999.0,64,0.00,,,0.00,WeatherSnoop3.0,2013-06-07 14:44:00,
2013-06-07 09:49:00,70.3,57.1,29.92,NE,34,1.0,-999.0,63,0.00,,,0.00,WeatherSnoop3.0,2013-06-07 14:49:00,
2013-06-07 09:54:00,70.3,57.1,29.92,NE,43,1.0,-999.0,63,0.00,,,0.00,WeatherSnoop3.0,2013-06-07 14:54:00,
2013-06-07 09:59:00,70.9,58.5,29.92,ENE,68,0.0,-999.0,65,0.00,,,0.00,WeatherSnoop3.0,2013-06-07 14:59:00,
2013-06-07 10:04:00,71.5,59.1,29.92,NNE,19,1.0,-999.0,65,0.00,,,0.00,WeatherSnoop3.0,2013-06-07 15:04:00,
2013-06-07 10:09:00,71.7,57.5,29.92,ENE,61,1.0,-999.0,61,0.00,,,0.00,WeatherSnoop3.0,2013-06-07 15:09:00,
2013-06-07 10:14:00,71.8,57.2,29.92,NNE,33,2.0,-999.0,60,0.00,,,0.00,WeatherSnoop3.0,2013-06-07 15:14:00,
2013-06-07 10:19:00,72.1,57.4,29.91,East,88,0.0,-999.0,60,0.00,,,0.00,WeatherSnoop3.0,2013-06-07 15:19:00,
2013-06-07 10:24:00,72.4,56.8,29.91,ENE,61,1.0,-999.0,58,0.00,,,0.00,WeatherSnoop3.0,2013-06-07 15:24:00,
2013-06-07 10:29:00,72.4,56.8,29.91,NNE,26,4.0,-999.0,58,0.00,,,0.00,WeatherSnoop3.0,2013-06-07 15:29:00,
2013-06-07 10:34:00,72.3,55.7,29.91,NE,39,1.0,-999.0,56,0.00,,,0.00,WeatherSnoop3.0,2013-06-07 15:34:00,
2013-06-07 10:39:00,72.2,55.6,29.91,NE,53,4.0,-999.0,56,0.00,,,0.00,WeatherSnoop3.0,2013-06-07 15:39:00,
2013-06-07 10:44:00,72.4,56.3,29.91,NE,36,3.0,-999.0,57,0.00,,,0.00,WeatherSnoop3.0,2013-06-07 15:44:00,
2013-06-07 10:49:00,72.6,57.9,29.91,NE,44,3.0,-999.0,60,0.00,,,0.00,WeatherSnoop3.0,2013-06-07 15:49:00,
2013-06-07 10:54:00,72.4,54.3,29.91,WNW,300,0.0,-999.0,53,0.00,,,0.00,WeatherSnoop3.0,2013-06-07 15:54:00,
2013-06-07 10:59:00,72.9,55.3,29.91,NE,36,2.0,-999.0,54,0.00,,,0.00,WeatherSnoop3.0,2013-06-07 15:59:00,
2013-06-07 11:04:00,73.1,54.4,29.91,WSW,238,1.0,-999.0,52,0.00,,,0.00,WeatherSnoop3.0,2013-06-07 16:04:00,
2013-06-07 11:09:00,73.3,55.6,29.91,NE,39,0.0,-999.0,54,0.00,,,0.00,WeatherSnoop3.0,2013-06-07 16:09:00,
2013-06-07 11:14:00,74.0,56.8,29.91,ENE,70,3.0,-999.0,55,0.00,,,0.00,WeatherSnoop3.0,2013-06-07 16:14:00,
2013-06-07 11:19:00,73.8,54.5,29.91,North,356,1.0,-999.0,51,0.00,,,0.00,WeatherSnoop3.0,2013-06-07 16:19:00,
2013-06-07 11:24:00,74.3,55.5,29.91,NE,46,1.0,-999.0,52,0.00,,,0.00,WeatherSnoop3.0,2013-06-07 16:24:00,
2013-06-07 11:29:00,74.5,55.2,29.90,WSW,250,2.0,-999.0,51,0.00,,,0.00,WeatherSnoop3.0,2013-06-07 16:29:00,
2013-06-07 11:34:00,74.9,53.3,29.90,ENE,75,2.0,-999.0,47,0.00,,,0.00,WeatherSnoop3.0,2013-06-07 16:34:00,
2013-06-07 11:39:00,74.7,55.9,29.90,NNE,14,5.0,-999.0,52,0.00,,,0.00,WeatherSnoop3.0,2013-06-07 16:39:00,
2013-06-07 11:44:00,74.5,55.7,29.90,ENE,62,3.0,-999.0,52,0.00,,,0.00,WeatherSnoop3.0,2013-06-07 16:44:00,
2013-06-07 11:49:00,74.5,55.2,29.90,NE,46,2.0,-999.0,51,0.00,,,0.00,WeatherSnoop3.0,2013-06-07 16:49:00,
2013-06-07 11:54:00,74.9,56.1,29.90,NNE,25,4.0,-999.0,52,0.00,,,0.00,WeatherSnoop3.0,2013-06-07 16:54:00,
2013-06-07 11:59:00,74.6,54.7,29.90,NE,50,0.0,-999.0,50,0.00,,,0.00,WeatherSnoop3.0,2013-06-07 16:59:00,
2013-06-07 12:04:00,74.6,55.8,29.90,ENE,63,2.0,-999.0,52,0.00,,,0.00,WeatherSnoop3.0,2013-06-07 17:04:00,
2013-06-07 12:09:00,74.5,55.7,29.89,SW,221,2.0,-999.0,52,0.00,,,0.00,WeatherSnoop3.0,2013-06-07 17:09:00,
2013-06-07 12:14:00,75.6,57.2,29.89,SW,224,1.0,-999.0,53,0.00,,,0.00,WeatherSnoop3.0,2013-06-07 17:14:00,
2013-06-07 12:19:00,75.9,56.5,29.89,NE,44,2.0,-999.0,51,0.00,,,0.00,WeatherSnoop3.0,2013-06-07 17:19:00,
2013-06-07 12:24:00,75.2,56.3,29.89,NNW,330,2.0,-999.0,52,0.00,,,0.00,WeatherSnoop3.0,2013-06-07 17:24:00,
2013-06-07 12:29:00,75.8,57.4,29.89,SSE,159,2.0,-999.0,53,0.00,,,0.00,WeatherSnoop3.0,2013-06-07 17:29:00,
2013-06-07 12:34:00,75.6,56.2,29.88,NE,50,1.0,-999.0,51,0.00,,,0.00,WeatherSnoop3.0,2013-06-07 17:34:00,
2013-06-07 12:39:00,75.7,58.9,29.88,East,100,0.0,-999.0,56,0.00,,,0.00,WeatherSnoop3.0,2013-06-07 17:39:00,
2013-06-07 12:44:00,76.4,59.5,29.88,SE,140,0.0,-999.0,56,0.00,,,0.00,WeatherSnoop3.0,2013-06-07 17:44:00,
2013-06-07 12:49:00,76.6,56.0,29.88,East,88,1.0,-999.0,49,0.00,,,0.00,WeatherSnoop3.0,2013-06-07 17:49:00,
2013-06-07 12:54:00,76.8,55.6,29.88,SSE,160,0.0,-999.0,48,0.00,,,0.00,WeatherSnoop3.0,2013-06-07 17:54:00,
2013-06-07 13:00:00,76.3,56.3,29.88,NE,55,0.0,-999.0,50,0.00,,,0.00,WeatherSnoop3.0,2013-06-07 18:00:00,
2013-06-07 13:05:00,75.7,55.2,29.88,NNE,18,0.0,-999.0,49,0.00,,,0.00,WeatherSnoop3.0,2013-06-07 18:05:00,
2013-06-07 13:11:00,75.7,57.9,29.88,East,95,0.0,-999.0,54,0.00,,,0.00,WeatherSnoop3.0,2013-06-07 18:11:00,
2013-06-07 13:16:00,76.3,56.3,29.87,ENE,61,3.0,-999.0,50,0.00,,,0.00,WeatherSnoop3.0,2013-06-07 18:16:00,
2013-06-07 13:21:00,76.3,55.1,29.87,West,259,0.0,-999.0,48,0.00,,,0.00,WeatherSnoop3.0,2013-06-07 18:21:00,
2013-06-07 13:28:00,76.3,56.3,29.87,NE,44,5.0,-999.0,50,0.00,,,0.00,WeatherSnoop3.0,2013-06-07 18:28:00,
2013-06-07 13:33:00,76.0,56.0,29.87,East,84,1.0,-999.0,50,0.00,,,0.00,WeatherSnoop3.0,2013-06-07 18:33:00,
2013-06-07 13:38:00,75.9,55.4,29.87,NNE,20,1.0,-999.0,49,0.00,,,0.00,WeatherSnoop3.0,2013-06-07 18:38:00,
2013-06-07 13:43:00,75.6,57.8,29.87,West,279,1.0,-999.0,54,0.00,,,0.00,WeatherSnoop3.0,2013-06-07 18:43:00,
2013-06-07 13:48:00,76.3,55.1,29.87,West,262,0.0,-999.0,48,0.00,,,0.00,WeatherSnoop3.0,2013-06-07 18:48:00,
2013-06-07 13:54:00,76.7,57.2,29.87,ESE,110,1.0,-999.0,51,0.00,,,0.00,WeatherSnoop3.0,2013-06-07 18:54:00,
2013-06-07 14:00:00,77.5,55.7,29.87,West,278,1.0,-999.0,47,0.00,,,0.00,WeatherSnoop3.0,2013-06-07 19:00:00,
2013-06-07 14:05:00,77.2,55.4,29.87,ENE,74,2.0,-999.0,47,0.00,,,0.00,WeatherSnoop3.0,2013-06-07 19:05:00,
2013-06-07 14:10:00,76.7,56.6,29.87,SE,142,0.0,-999.0,50,0.00,,,0.00,WeatherSnoop3.0,2013-06-07 19:10:00,
2013-06-07 14:15:00,77.9,57.7,29.86,NNW,347,0.0,-999.0,50,0.00,,,0.00,WeatherSnoop3.0,2013-06-07 19:15:00,
2013-06-07 14:22:00,78.8,58.0,29.86,NE,53,0.0,-999.0,49,0.00,,,0.00,WeatherSnoop3.0,2013-06-07 19:22:00,
2013-06-07 14:27:00,79.0,57.6,29.86,NE,39,2.0,-999.0,48,0.00,,,0.00,WeatherSnoop3.0,2013-06-07 19:27:00,
2013-06-07 14:32:00,78.7,57.3,29.86,North,358,1.0,-999.0,48,0.00,,,0.00,WeatherSnoop3.0,2013-06-07 19:32:00,
2013-06-07 14:37:00,78.9,56.9,29.86,NNE,28,4.0,-999.0,47,0.00,,,0.00,WeatherSnoop3.0,2013-06-07 19:37:00,
2013-06-07 14:42:00,77.8,54.7,29.86,NE,53,0.0,-999.0,45,0.00,,,0.00,WeatherSnoop3.0,2013-06-07 19:42:00,
2013-06-07 14:47:00,77.4,57.3,29.86,SE,145,2.0,-999.0,50,0.00,,,0.00,WeatherSnoop3.0,2013-06-07 19:47:00,
2013-06-07 14:54:00,76.8,56.7,29.86,ESE,110,1.0,-999.0,50,0.00,,,0.00,WeatherSnoop3.0,2013-06-07 19:54:00,
2013-06-07 14:59:00,76.3,55.7,29.86,SE,142,0.0,-999.0,49,0.00,,,0.00,WeatherSnoop3.0,2013-06-07 19:59:00,
2013-06-07 15:04:00,76.3,56.3,29.86,SSW,208,0.0,-999.0,50,0.00,,,0.00,WeatherSnoop3.0,2013-06-07 20:04:00,
2013-06-07 15:09:00,76.5,57.0,29.86,SE,131,0.0,-999.0,51,0.00,,,0.00,WeatherSnoop3.0,2013-06-07 20:09:00,
2013-06-07 15:15:00,76.9,56.8,29.86,ESE,121,0.0,-999.0,50,0.00,,,0.00,WeatherSnoop3.0,2013-06-07 20:15:00,
2013-06-07 15:20:00,77.8,58.2,29.86,SW,218,0.0,-999.0,51,0.00,,,0.00,WeatherSnoop3.0,2013-06-07 20:20:00,
2013-06-07 15:25:00,78.3,57.0,29.85,ENE,61,1.0,-999.0,48,0.00,,,0.00,WeatherSnoop3.0,2013-06-07 20:25:00,
2013-06-07 15:30:00,78.9,61.8,29.85,East,99,2.0,-999.0,56,0.00,,,0.00,WeatherSnoop3.0,2013-06-07 20:30:00,
2013-06-07 15:35:00,79.5,59.2,29.85,NE,39,2.0,-999.0,50,0.00,,,0.00,WeatherSnoop3.0,2013-06-07 20:35:00,
2013-06-07 15:40:00,79.6,58.2,29.85,SE,142,4.0,-999.0,48,0.00,,,0.00,WeatherSnoop3.0,2013-06-07 20:40:00,
2013-06-07 15:47:00,79.7,56.5,29.85,South,169,2.0,-999.0,45,0.00,,,0.00,WeatherSnoop3.0,2013-06-07 20:47:00,
2013-06-07 15:52:00,79.8,58.3,29.84,NE,39,5.0,-999.0,48,0.00,,,0.00,WeatherSnoop3.0,2013-06-07 20:52:00,
2013-06-07 15:57:00,79.5,59.2,29.84,NE,36,0.0,-999.0,50,0.00,,,0.00,WeatherSnoop3.0,2013-06-07 20:57:00,
2013-06-07 16:02:00,79.3,57.9,29.84,East,80,0.0,-999.0,48,0.00,,,0.00,WeatherSnoop3.0,2013-06-07 21:02:00,
2013-06-07 16:08:00,78.5,57.7,29.84,SSW,197,1.0,-999.0,49,0.00,,,0.00,WeatherSnoop3.0,2013-06-07 21:08:00,
2013-06-07 16:13:00,78.6,56.7,29.84,NE,43,2.0,-999.0,47,0.00,,,0.00,WeatherSnoop3.0,2013-06-07 21:13:00,
2013-06-07 16:18:00,78.5,57.2,29.84,East,101,0.0,-999.0,48,0.00,,,0.00,WeatherSnoop3.0,2013-06-07 21:18:00,
2013-06-07 16:23:00,79.1,56.5,29.83,SE,134,0.0,-999.0,46,0.00,,,0.00,WeatherSnoop3.0,2013-06-07 21:23:00,
2013-06-07 16:28:00,79.4,55.6,29.83,SW,229,2.0,-999.0,44,0.00,,,0.00,WeatherSnoop3.0,2013-06-07 21:28:00,
2013-06-07 16:33:00,79.6,57.6,29.83,East,98,0.0,-999.0,47,0.00,,,0.00,WeatherSnoop3.0,2013-06-07 21:33:00,
2013-06-07 16:41:00,79.9,58.4,29.82,SW,232,2.0,-999.0,48,0.00,,,0.00,WeatherSnoop3.0,2013-06-07 21:41:00,
2013-06-07 16:46:00,80.4,57.1,29.82,WSW,239,1.0,-999.0,45,0.00,,,0.00,WeatherSnoop3.0,2013-06-07 21:46:00,
2013-06-07 16:51:00,80.6,55.4,29.82,West,259,2.0,-999.0,42,0.00,,,0.00,WeatherSnoop3.0,2013-06-07 21:51:00,
2013-06-07 16:56:00,80.8,57.5,29.82,NNW,345,2.0,-999.0,45,0.00,,,0.00,WeatherSnoop3.0,2013-06-07 21:56:00,
2013-06-07 17:01:00,80.4,58.3,29.81,NE,43,0.0,-999.0,47,0.00,,,0.00,WeatherSnoop3.0,2013-06-07 22:01:00,
2013-06-07 17:07:00,81.1,57.7,29.81,South,188,0.0,-999.0,45,0.00,,,0.00,WeatherSnoop3.0,2013-06-07 22:07:00,
2013-06-07 17:12:00,81.0,56.4,29.81,SE,131,3.0,-999.0,43,0.00,,,0.00,WeatherSnoop3.0,2013-06-07 22:12:00,
2013-06-07 17:17:00,80.9,59.9,29.80,NNE,29,0.0,-999.0,49,0.00,,,0.00,WeatherSnoop3.0,2013-06-07 22:17:00,
2013-06-07 17:24:00,80.8,56.8,29.80,SSW,202,1.0,-999.0,44,0.00,,,0.00,WeatherSnoop3.0,2013-06-07 22:24:00,
2013-06-07 17:30:00,81.0,57.0,29.80,SW,218,0.0,-999.0,44,0.00,,,0.00,WeatherSnoop3.0,2013-06-07 22:30:00,
2013-06-07 17:35:00,81.0,56.4,29.80,SW,215,2.0,-999.0,43,0.00,,,0.00,WeatherSnoop3.0,2013-06-07 22:35:00,
2013-06-07 17:40:00,80.8,56.2,29.80,SE,138,1.0,-999.0,43,0.00,,,0.00,WeatherSnoop3.0,2013-06-07 22:40:00,
2013-06-07 17:48:00,80.8,59.3,29.79,SE,138,1.0,-999.0,48,0.00,,,0.00,WeatherSnoop3.0,2013-06-07 22:48:00,
2013-06-07 17:54:00,80.7,58.6,29.79,ESE,115,0.0,-999.0,47,0.00,,,0.00,WeatherSnoop3.0,2013-06-07 22:54:00,
2013-06-07 17:59:00,80.5,57.2,29.79,East,87,0.0,-999.0,45,0.00,,,0.00,WeatherSnoop3.0,2013-06-07 22:59:00,
2013-06-07 18:06:00,79.9,58.4,29.79,SE,125,3.0,-999.0,48,0.00,,,0.00,WeatherSnoop3.0,2013-06-07 23:06:00,
2013-06-07 18:11:00,79.7,57.1,29.79,ESE,118,2.0,-999.0,46,0.00,,,0.00,WeatherSnoop3.0,2013-06-07 23:11:00,
2013-06-07 18:16:00,79.6,57.0,29.79,SSW,204,0.0,-999.0,46,0.00,,,0.00,WeatherSnoop3.0,2013-06-07 23:16:00,
2013-06-07 18:21:00,79.2,56.6,29.79,SSE,149,3.0,-999.0,46,0.00,,,0.00,WeatherSnoop3.0,2013-06-07 23:21:00,
2013-06-07 18:27:00,78.6,57.2,29.79,SE,134,2.0,-999.0,48,0.00,,,0.00,WeatherSnoop3.0,2013-06-07 23:27:00,
2013-06-07 18:32:00,78.4,59.3,29.79,SE,125,0.0,-999.0,52,0.00,,,0.00,WeatherSnoop3.0,2013-06-07 23:32:00,
2013-06-07 18:39:00,79.0,59.3,29.79,SE,145,0.0,-999.0,51,0.00,,,0.00,WeatherSnoop3.0,2013-06-07 23:39:00,
2013-06-07 18:48:00,78.9,58.7,29.79,SE,136,2.0,-999.0,50,0.00,,,0.00,WeatherSnoop3.0,2013-06-07 23:48:00,
2013-06-07 18:53:00,78.9,58.7,29.79,SE,137,0.0,-999.0,50,0.00,,,0.00,WeatherSnoop3.0,2013-06-07 23:53:00,
2013-06-07 18:58:00,78.8,59.1,29.79,SE,136,0.0,-999.0,51,0.00,,,0.00,WeatherSnoop3.0,2013-06-07 23:58:00,
2013-06-07 19:03:00,79.0,59.9,29.78,SE,136,0.0,-999.0,52,0.00,,,0.00,WeatherSnoop3.0,2013-06-08 00:03:00,
2013-06-07 19:08:00,78.6,57.2,29.78,SSE,148,2.0,-999.0,48,0.00,,,0.00,WeatherSnoop3.0,2013-06-08 00:08:00,
2013-06-07 19:13:00,78.2,58.6,29.78,SE,134,0.0,-999.0,51,0.00,,,0.00,WeatherSnoop3.0,2013-06-08 00:13:00,
2013-06-07 19:18:00,77.9,59.4,29.78,SSE,148,2.0,-999.0,53,0.00,,,0.00,WeatherSnoop3.0,2013-06-08 00:18:00,
2013-06-07 19:23:00,77.7,58.7,29.77,SSE,148,1.0,-999.0,52,0.00,,,0.00,WeatherSnoop3.0,2013-06-08 00:23:00,
2013-06-07 19:28:00,77.5,58.5,29.77,SSE,150,0.0,-999.0,52,0.00,,,0.00,WeatherSnoop3.0,2013-06-08 00:28:00,
2013-06-07 19:33:00,77.4,58.4,29.77,SE,134,1.0,-999.0,52,0.00,,,0.00,WeatherSnoop3.0,2013-06-08 00:33:00,
2013-06-07 19:38:00,77.1,58.1,29.78,SSE,154,1.0,-999.0,52,0.00,,,0.00,WeatherSnoop3.0,2013-06-08 00:38:00,
2013-06-07 19:43:00,77.0,59.6,29.78,SE,139,0.0,-999.0,55,0.00,,,0.00,WeatherSnoop3.0,2013-06-08 00:43:00,
2013-06-07 19:48:00,76.3,59.4,29.78,SSE,155,1.0,-999.0,56,0.00,,,0.00,WeatherSnoop3.0,2013-06-08 00:48:00,
2013-06-07 19:55:00,75.5,59.7,29.78,SE,134,0.0,-999.0,58,0.00,,,0.00,WeatherSnoop3.0,2013-06-08 00:55:00,
2013-06-07 20:00:00,74.7,58.9,29.78,SE,139,0.0,-999.0,58,0.00,,,0.00,WeatherSnoop3.0,2013-06-08 01:00:00,
2013-06-07 20:05:00,74.0,58.7,29.78,SSE,150,0.0,-999.0,59,0.00,,,0.00,WeatherSnoop3.0,2013-06-08 01:05:00,
2013-06-07 20:10:00,73.4,59.1,29.78,SE,134,0.0,-999.0,61,0.00,,,0.00,WeatherSnoop3.0,2013-06-08 01:10:00,
2013-06-07 20:16:00,72.8,58.6,29.78,SSE,148,1.0,-999.0,61,0.00,,,0.00,WeatherSnoop3.0,2013-06-08 01:16:00,
2013-06-07 20:21:00,72.3,59.0,29.78,SE,131,1.0,-999.0,63,0.00,,,0.00,WeatherSnoop3.0,2013-06-08 01:21:00,
2013-06-07 20:26:00,71.8,59.4,29.79,SE,140,0.0,-999.0,65,0.00,,,0.00,WeatherSnoop3.0,2013-06-08 01:26:00,
2013-06-07 20:31:00,71.3,59.3,29.79,SE,142,2.0,-999.0,66,0.00,,,0.00,WeatherSnoop3.0,2013-06-08 01:31:00,
2013-06-07 20:36:00,71.0,59.1,29.79,SE,142,2.0,-999.0,66,0.00,,,0.00,WeatherSnoop3.0,2013-06-08 01:36:00,
2013-06-07 20:43:00,70.5,59.0,29.78,SSE,147,0.0,-999.0,67,0.00,,,0.00,WeatherSnoop3.0,2013-06-08 01:43:00,
2013-06-07 20:48:00,70.2,59.5,29.78,SE,139,0.0,-999.0,69,0.00,,,0.00,WeatherSnoop3.0,2013-06-08 01:48:00,
2013-06-07 20:53:00,70.0,58.9,29.80,SE,138,1.0,-999.0,68,0.00,,,0.00,WeatherSnoop3.0,2013-06-08 01:53:00,
2013-06-07 20:58:00,69.8,59.2,29.80,SE,145,0.0,-999.0,69,0.00,,,0.00,WeatherSnoop3.0,2013-06-08 01:58:00,
2013-06-07 21:06:00,69.4,59.2,29.79,SE,133,0.0,-999.0,70,0.00,,,0.00,WeatherSnoop3.0,2013-06-08 02:06:00,
2013-06-07 21:11:00,69.1,58.9,29.79,SE,129,0.0,-999.0,70,0.00,,,0.00,WeatherSnoop3.0,2013-06-08 02:11:00,
2013-06-07 21:16:00,68.9,59.1,29.79,ESE,119,1.0,-999.0,71,0.00,,,0.00,WeatherSnoop3.0,2013-06-08 02:16:00,
2013-06-07 21:22:00,68.6,59.2,29.79,SE,138,0.0,-999.0,72,0.00,,,0.00,WeatherSnoop3.0,2013-06-08 02:22:00,
2013-06-07 21:27:00,68.1,59.5,29.79,SE,133,0.0,-999.0,74,0.00,,,0.00,WeatherSnoop3.0,2013-06-08 02:27:00,
2013-06-07 21:32:00,67.7,59.1,29.79,SE,142,0.0,-999.0,74,0.00,,,0.00,WeatherSnoop3.0,2013-06-08 02:32:00,
2013-06-07 21:39:00,67.2,59.4,29.79,SE,142,0.0,-999.0,76,0.00,,,0.00,WeatherSnoop3.0,2013-06-08 02:39:00,
2013-06-07 21:45:00,66.7,59.3,29.79,SE,145,0.0,-999.0,77,0.00,,,0.00,WeatherSnoop3.0,2013-06-08 02:45:00,
2013-06-07 21:50:00,66.4,59.3,29.79,SE,137,0.0,-999.0,78,0.00,,,0.00,WeatherSnoop3.0,2013-06-08 02:50:00,
2013-06-07 21:55:00,66.4,59.3,29.80,SE,136,0.0,-999.0,78,0.00,,,0.00,WeatherSnoop3.0,2013-06-08 02:55:00,
2013-06-07 22:00:00,66.5,59.4,29.80,SE,140,0.0,-999.0,78,0.00,,,0.00,WeatherSnoop3.0,2013-06-08 03:00:00,
2013-06-07 22:05:00,66.5,59.1,29.80,SE,136,0.0,-999.0,77,0.00,,,0.00,WeatherSnoop3.0,2013-06-08 03:05:00,
2013-06-07 22:10:00,66.4,59.0,29.80,SSE,158,0.0,-999.0,77,0.00,,,0.00,WeatherSnoop3.0,2013-06-08 03:10:00,
2013-06-07 22:15:00,66.3,58.9,29.80,SE,140,1.0,-999.0,77,0.00,,,0.00,WeatherSnoop3.0,2013-06-08 03:15:00,
2013-06-07 22:20:00,66.2,58.8,29.80,SE,145,2.0,-999.0,77,0.00,,,0.00,WeatherSnoop3.0,2013-06-08 03:20:00,
2013-06-07 22:25:00,66.2,59.1,29.80,SE,133,0.0,-999.0,78,0.00,,,0.00,WeatherSnoop3.0,2013-06-08 03:25:00,
2013-06-07 22:31:00,65.8,59.1,29.80,SE,129,1.0,-999.0,79,0.00,,,0.00,WeatherSnoop3.0,2013-06-08 03:31:00,
2013-06-07 22:39:00,65.3,59.0,29.80,SE,131,0.0,-999.0,80,0.00,,,0.00,WeatherSnoop3.0,2013-06-08 03:39:00,
2013-06-07 22:44:00,65.0,59.0,29.80,SE,140,0.0,-999.0,81,0.00,,,0.00,WeatherSnoop3.0,2013-06-08 03:44:00,
2013-06-07 22:49:00,64.9,58.9,29.80,ESE,113,0.0,-999.0,81,0.00,,,0.00,WeatherSnoop3.0,2013-06-08 03:49:00,
2013-06-07 22:54:00,64.5,58.9,29.80,ESE,113,0.0,-999.0,82,0.00,,,0.00,WeatherSnoop3.0,2013-06-08 03:54:00,
2013-06-07 23:00:00,64.5,58.9,29.79,East,101,0.0,-999.0,82,0.00,,,0.00,WeatherSnoop3.0,2013-06-08 04:00:00,
2013-06-07 23:01:00,64.5,58.9,29.79,East,100,0.0,-999.0,82,0.00,,,0.00,WeatherSnoop3.0,2013-06-08 04:01:00,
2013-06-07 23:02:00,64.5,58.9,29.80,SE,124,0.0,-999.0,82,0.00,,,0.00,WeatherSnoop3.0,2013-06-08 04:02:00,
2013-06-07 23:03:00,64.4,58.8,29.79,SE,139,0.0,-999.0,82,0.00,,,0.00,WeatherSnoop3.0,2013-06-08 04:03:00,
2013-06-07 23:05:00,64.4,58.8,29.80,SE,134,0.0,-999.0,82,0.00,,,0.00,WeatherSnoop3.0,2013-06-08 04:05:00,
2013-06-07 23:06:00,64.4,58.8,29.80,SE,132,0.0,-999.0,82,0.00,,,0.00,WeatherSnoop3.0,2013-06-08 04:06:00,
2013-06-07 23:11:00,64.2,58.6,29.79,SE,134,0.0,-999.0,82,0.00,,,0.00,WeatherSnoop3.0,2013-06-08 04:11:00,
2013-06-07 23:16:00,64.2,58.6,29.79,ESE,118,0.0,-999.0,82,0.00,,,0.00,WeatherSnoop3.0,2013-06-08 04:16:00,
2013-06-07 23:21:00,64.2,58.6,29.79,SE,133,0.0,-999.0,82,0.00,,,0.00,WeatherSnoop3.0,2013-06-08 04:21:00,
2013-06-07 23:26:00,64.3,58.7,29.79,SE,142,0.0,-999.0,82,0.00,,,0.00,WeatherSnoop3.0,2013-06-08 04:26:00,
2013-06-07 23:31:00,64.1,58.5,29.79,ESE,121,0.0,-999.0,82,0.00,,,0.00,WeatherSnoop3.0,2013-06-08 04:31:00,
2013-06-07 23:36:00,64.0,58.4,29.78,ESE,115,0.0,-999.0,82,0.00,,,0.00,WeatherSnoop3.0,2013-06-08 04:36:00,
2013-06-07 23:41:00,63.9,58.6,29.78,ESE,113,0.0,-999.0,83,0.00,,,0.00,WeatherSnoop3.0,2013-06-08 04:41:00,
2013-06-07 23:46:00,63.8,58.5,29.79,ESE,113,1.0,-999.0,83,0.00,,,0.00,WeatherSnoop3.0,2013-06-08 04:46:00,
2013-06-07 23:51:00,63.8,58.5,29.78,SE,133,0.0,-999.0,83,0.00,,,0.00,WeatherSnoop3.0,2013-06-08 04:51:00,
2013-06-07 23:56:00,63.7,58.4,29.78,SE,139,0.0,-999.0,83,0.00,,,0.00,WeatherSnoop3.0,2013-06-08 04:56:00,